createdAt,value
2022-09-13T00:00:51.801Z,63.30
2022-09-13T00:03:24.058Z,63.00
2022-09-13T00:05:56.293Z,63.26
2022-09-13T00:08:28.265Z,63.45
2022-09-13T00:11:00.234Z,63.62
2022-09-13T00:13:32.516Z,63.41
2022-09-13T00:16:05.409Z,63.28
2022-09-13T00:18:37.547Z,63.44
2022-09-13T00:21:19.115Z,64.12
2022-09-13T00:23:53.881Z,63.89
2022-09-13T00:26:28.765Z,64.05
2022-09-13T00:29:00.788Z,64.53
2022-09-13T00:31:32.821Z,64.21
2022-09-13T00:34:04.879Z,64.68
2022-09-13T00:36:36.811Z,64.71
2022-09-13T00:39:10.844Z,65.33
2022-09-13T00:41:42.765Z,66.37
2022-09-13T00:44:49.902Z,71.07
2022-09-13T00:47:38.386Z,76.40
2022-09-13T00:50:32.414Z,81.44
2022-09-13T00:53:33.735Z,83.60
2022-09-13T00:56:17.351Z,85.76
2022-09-13T00:59:05.790Z,88.26
2022-09-13T01:01:50.547Z,89.15
2022-09-13T01:04:27.921Z,89.76
2022-09-13T01:07:04.930Z,90.76
2022-09-13T01:09:40.131Z,92.79
2022-09-13T01:12:37.597Z,93.95
2022-09-13T01:15:10.417Z,95.64
2022-09-13T01:17:43.585Z,97.86
2022-09-13T01:20:16.015Z,98.31
2022-09-13T01:23:27.976Z,99.16
2022-09-13T01:26:57.142Z,100.00
2022-09-13T01:29:32.028Z,100.00
2022-09-13T01:32:36.130Z,100.00
2022-09-13T01:35:49.640Z,100.00
2022-09-13T01:39:01.639Z,100.00
2022-09-13T01:41:55.107Z,100.00
2022-09-13T01:44:52.445Z,100.00
2022-09-13T01:47:36.798Z,100.00
2022-09-13T01:50:17.943Z,100.00
2022-09-13T01:53:01.914Z,100.00
2022-09-13T01:55:46.847Z,100.00
2022-09-13T01:58:39.893Z,100.00
2022-09-13T02:01:36.715Z,100.00
2022-09-13T02:04:15.536Z,100.00
2022-09-13T02:07:14.435Z,100.00
2022-09-13T02:09:53.087Z,100.00
2022-09-13T02:12:29.360Z,100.00
2022-09-13T02:15:11.465Z,100.00
2022-09-13T02:17:54.716Z,100.00
2022-09-13T02:20:35.690Z,100.00
2022-09-13T02:23:50.448Z,100.00
2022-09-13T02:26:25.285Z,100.00
2022-09-13T02:29:02.595Z,100.00
2022-09-13T02:31:40.193Z,100.00
2022-09-13T02:34:20.550Z,100.00
2022-09-13T02:36:55.446Z,100.00
2022-09-13T02:39:32.123Z,100.00
2022-09-13T02:42:49.371Z,100.00
2022-09-13T02:45:30.028Z,100.00
2022-09-13T02:48:16.538Z,100.00
2022-09-13T02:51:08.485Z,100.00
2022-09-13T02:54:21.242Z,100.00
2022-09-13T02:57:07.004Z,100.00
2022-09-13T02:59:38.998Z,100.00
2022-09-13T03:02:16.648Z,100.00
2022-09-13T03:04:51.519Z,100.00
2022-09-13T03:07:23.465Z,100.00
2022-09-13T03:10:02.437Z,100.00
2022-09-13T03:12:34.485Z,100.00
2022-09-13T03:15:43.885Z,100.00
2022-09-13T03:19:22.307Z,100.00
2022-09-13T03:22:24.612Z,100.00
2022-09-13T03:25:45.016Z,100.00
2022-09-13T03:28:38.058Z,100.00
2022-09-13T03:31:24.681Z,100.00
2022-09-13T03:34:40.708Z,100.00
2022-09-13T03:37:31.706Z,100.00
2022-09-13T03:40:13.721Z,100.00
2022-09-13T03:43:12.541Z,100.00
2022-09-13T03:45:57.274Z,100.00
2022-09-13T03:48:31.028Z,100.00
2022-09-13T03:51:03.006Z,100.00
2022-09-13T03:53:45.969Z,100.00
2022-09-13T03:56:20.847Z,100.00
2022-09-13T03:58:52.995Z,100.00
2022-09-13T04:01:25.843Z,100.00
2022-09-13T04:03:57.829Z,100.00
2022-09-13T04:06:29.792Z,100.00
2022-09-13T04:09:01.856Z,100.00
2022-09-13T04:11:33.770Z,100.00
2022-09-13T04:14:05.694Z,100.00
2022-09-13T04:16:37.667Z,100.00
2022-09-13T04:19:10.530Z,100.00
2022-09-13T04:21:42.488Z,100.00
2022-09-13T04:24:15.213Z,100.00
2022-09-13T04:26:51.502Z,100.00
2022-09-13T04:29:25.547Z,99.94
2022-09-13T04:31:57.681Z,100.00
2022-09-13T04:34:30.058Z,99.85
2022-09-13T04:37:02.031Z,99.95
2022-09-13T04:39:33.968Z,99.89
2022-09-13T04:42:07.318Z,100.00
2022-09-13T04:44:39.238Z,100.00
2022-09-13T04:47:11.198Z,100.00
2022-09-13T04:49:43.119Z,100.00
2022-09-13T04:52:15.186Z,100.00
2022-09-13T04:54:48.154Z,100.00
2022-09-13T04:57:21.123Z,100.00
2022-09-13T04:59:53.017Z,100.00
2022-09-13T05:02:25.178Z,100.00
2022-09-13T05:04:57.282Z,100.00
2022-09-13T05:07:29.355Z,100.00
2022-09-13T05:10:01.269Z,100.00
2022-09-13T05:12:33.220Z,100.00
2022-09-13T05:15:07.125Z,100.00
2022-09-13T05:17:39.206Z,100.00
2022-09-13T05:20:11.280Z,100.00
2022-09-13T05:22:43.274Z,100.00
2022-09-13T05:25:15.247Z,100.00
2022-09-13T05:27:47.336Z,100.00
2022-09-13T05:30:19.393Z,100.00
2022-09-13T05:32:51.318Z,100.00
2022-09-13T05:35:23.218Z,100.00
2022-09-13T05:37:55.170Z,100.00
2022-09-13T05:40:27.213Z,100.00
2022-09-13T05:42:59.925Z,100.00
2022-09-13T05:45:32.639Z,100.00
2022-09-13T05:48:04.952Z,100.00
2022-09-13T05:50:57.712Z,100.00
2022-09-13T05:53:31.040Z,100.00
2022-09-13T05:56:03.118Z,100.00
2022-09-13T05:58:39.204Z,100.00
2022-09-13T06:01:12.941Z,100.00
2022-09-13T06:03:51.458Z,100.00
2022-09-13T06:06:24.544Z,100.00
2022-09-13T06:08:57.855Z,100.00
2022-09-13T06:11:29.904Z,100.00
2022-09-13T06:14:02.147Z,100.00
2022-09-13T06:16:34.239Z,100.00
2022-09-13T06:19:06.342Z,100.00
2022-09-13T06:21:38.275Z,100.00
2022-09-13T06:24:10.273Z,100.00
2022-09-13T06:26:42.185Z,100.00
2022-09-13T06:29:14.944Z,100.00
2022-09-13T06:31:46.837Z,100.00
2022-09-13T06:34:18.833Z,100.00
2022-09-13T06:36:50.774Z,100.00
2022-09-13T06:39:22.702Z,100.00
2022-09-13T06:41:54.593Z,100.00
2022-09-13T06:44:26.748Z,100.00
2022-09-13T06:46:58.769Z,100.00
2022-09-13T06:49:31.689Z,100.00
2022-09-13T06:52:03.849Z,100.00
2022-09-13T06:54:35.858Z,100.00
2022-09-13T06:57:07.813Z,100.00
2022-09-13T06:59:39.910Z,100.00
2022-09-13T07:02:13.553Z,100.00
2022-09-13T07:04:45.687Z,100.00
2022-09-13T07:07:17.605Z,100.00
2022-09-13T07:09:49.637Z,100.00
2022-09-13T07:12:21.576Z,100.00
2022-09-13T07:14:53.846Z,100.00
2022-09-13T07:17:28.508Z,100.00
2022-09-13T07:20:05.965Z,100.00
2022-09-13T07:22:37.898Z,100.00
2022-09-13T07:25:10.137Z,100.00
2022-09-13T07:27:42.239Z,100.00
2022-09-13T07:30:14.227Z,100.00
2022-09-13T07:32:46.269Z,100.00
2022-09-13T07:35:18.291Z,100.00
2022-09-13T07:37:50.196Z,100.00
2022-09-13T07:40:22.207Z,100.00
2022-09-13T07:42:54.210Z,100.00
2022-09-13T07:45:26.235Z,100.00
2022-09-13T07:47:58.233Z,100.00
2022-09-13T07:50:30.165Z,100.00
2022-09-13T07:53:02.112Z,100.00
2022-09-13T07:55:34.049Z,100.00
2022-09-13T07:58:05.995Z,100.00
2022-09-13T08:00:37.996Z,100.00
2022-09-13T08:03:12.099Z,100.00
2022-09-13T08:05:46.775Z,100.00
2022-09-13T08:08:20.121Z,100.00
2022-09-13T08:10:52.087Z,100.00
2022-09-13T08:13:24.811Z,100.00
2022-09-13T08:15:57.053Z,100.00
2022-09-13T08:18:29.186Z,99.01
2022-09-13T08:21:02.094Z,99.01
2022-09-13T08:23:34.220Z,98.13
2022-09-13T08:26:08.202Z,97.97
2022-09-13T08:28:42.149Z,98.43
2022-09-13T08:31:18.241Z,99.45
2022-09-13T08:33:50.589Z,99.00
2022-09-13T08:36:26.440Z,99.50
2022-09-13T08:39:00.692Z,100.00
2022-09-13T08:41:48.158Z,100.00
2022-09-13T08:44:52.588Z,100.00
2022-09-13T08:47:41.841Z,100.00
2022-09-13T08:50:27.529Z,100.00
2022-09-13T08:53:20.563Z,100.00
2022-09-13T08:56:16.475Z,100.00
2022-09-13T08:59:12.257Z,100.00
2022-09-13T09:02:30.873Z,100.00
2022-09-13T09:05:21.770Z,100.00
2022-09-13T09:08:02.816Z,100.00
2022-09-13T09:10:49.186Z,100.00
2022-09-13T09:13:30.492Z,100.00
2022-09-13T09:16:23.014Z,100.00
2022-09-13T09:19:00.187Z,100.00
2022-09-13T09:21:33.786Z,99.07
2022-09-13T09:24:06.857Z,92.18
2022-09-13T09:26:38.820Z,89.97
2022-09-13T09:29:24.711Z,85.10
2022-09-13T09:32:18.543Z,81.28
2022-09-13T09:35:21.749Z,74.86
2022-09-13T09:38:37.349Z,68.48
2022-09-13T09:41:32.678Z,61.67
2022-09-13T09:44:18.645Z,64.26
2022-09-13T09:46:58.005Z,68.29
2022-09-13T09:49:59.375Z,72.17
2022-09-13T09:52:56.784Z,71.37
2022-09-13T09:55:44.577Z,72.55
2022-09-13T09:58:17.033Z,73.37
2022-09-13T10:00:59.273Z,72.25
2022-09-13T10:03:34.128Z,77.42
2022-09-13T10:06:12.018Z,71.16
2022-09-13T10:08:55.094Z,63.41
2022-09-13T10:12:00.190Z,47.92
2022-09-13T10:14:41.905Z,41.79
2022-09-13T10:17:28.461Z,42.97
2022-09-13T10:20:21.152Z,39.12
2022-09-13T10:23:15.758Z,40.96
2022-09-13T10:26:05.656Z,40.64
2022-09-13T10:29:06.280Z,42.10
2022-09-13T10:31:42.816Z,36.13
2022-09-13T10:34:21.825Z,33.84
2022-09-13T10:37:19.358Z,31.06
2022-09-13T10:40:00.942Z,30.82
2022-09-13T10:42:33.060Z,29.90
2022-09-13T10:45:07.194Z,27.43
2022-09-13T10:47:49.126Z,27.77
2022-09-13T10:50:31.401Z,28.50
2022-09-13T10:53:05.724Z,31.65
2022-09-13T10:55:40.973Z,33.43
2022-09-13T10:58:17.372Z,33.21
2022-09-13T11:01:49.827Z,29.85
2022-09-13T11:04:36.743Z,25.78
2022-09-13T11:07:51.154Z,24.92
2022-09-13T11:10:47.515Z,25.47
2022-09-13T11:13:54.153Z,25.05
2022-09-13T11:17:16.358Z,28.70
2022-09-13T11:20:08.152Z,29.93
2022-09-13T11:23:26.761Z,32.68
2022-09-13T11:26:48.514Z,33.06
2022-09-13T11:29:42.521Z,32.09
2022-09-13T11:32:31.402Z,30.27
2022-09-13T11:35:29.154Z,25.58
2022-09-13T11:38:19.594Z,24.78
2022-09-13T11:41:12.684Z,23.79
2022-09-13T11:44:18.727Z,24.08
2022-09-13T11:47:45.156Z,23.47
2022-09-13T11:50:50.142Z,25.36
2022-09-13T11:54:08.256Z,23.59
2022-09-13T11:56:45.059Z,23.93
2022-09-13T11:59:42.799Z,23.82
2022-09-13T12:02:28.430Z,21.43
2022-09-13T12:05:23.251Z,21.81
2022-09-13T12:08:22.730Z,19.65
2022-09-13T12:11:15.450Z,21.65
2022-09-13T12:13:59.109Z,21.05
2022-09-13T12:16:42.754Z,20.73
2022-09-13T12:19:24.850Z,19.94
2022-09-13T12:22:01.110Z,20.41
2022-09-13T12:24:50.826Z,21.46
2022-09-13T12:27:40.471Z,20.38
2022-09-13T12:30:22.260Z,20.65
2022-09-13T12:32:58.823Z,21.44
2022-09-13T12:35:45.447Z,23.47
2022-09-13T12:39:08.617Z,23.54
2022-09-13T12:42:20.525Z,23.82
2022-09-13T12:45:05.767Z,25.49
2022-09-13T12:48:14.585Z,25.35
2022-09-13T12:51:24.995Z,25.25
2022-09-13T12:54:40.738Z,24.33
2022-09-13T12:57:49.245Z,25.32
2022-09-13T13:00:31.311Z,26.62
2022-09-13T13:03:15.739Z,28.40
2022-09-13T13:06:06.071Z,31.59
2022-09-13T13:08:38.984Z,31.36
2022-09-13T13:11:14.121Z,32.72
2022-09-13T13:13:55.424Z,34.48
2022-09-13T13:16:38.235Z,35.20
2022-09-13T13:19:33.094Z,33.51
2022-09-13T13:22:42.917Z,34.31
2022-09-13T13:25:39.189Z,33.13
2022-09-13T13:28:45.524Z,33.27
2022-09-13T13:31:32.165Z,34.75
2022-09-13T13:34:08.426Z,34.26
2022-09-13T13:36:40.323Z,33.35
2022-09-13T13:39:26.921Z,32.86
2022-09-13T13:42:25.479Z,33.95
2022-09-13T13:45:16.712Z,33.61
2022-09-13T13:48:11.709Z,33.39
2022-09-13T13:51:20.668Z,34.53
2022-09-13T13:54:28.493Z,34.82
2022-09-13T13:57:01.010Z,35.27
2022-09-13T13:59:33.729Z,34.58
2022-09-13T14:02:06.402Z,34.07
2022-09-13T14:04:54.321Z,36.11
2022-09-13T14:08:17.496Z,35.32
2022-09-13T14:11:33.524Z,35.17
2022-09-13T14:14:41.782Z,36.78
2022-09-13T14:18:02.396Z,37.03
2022-09-13T14:20:34.336Z,37.55
2022-09-13T14:23:20.223Z,37.75
2022-09-13T14:25:59.087Z,37.11
2022-09-13T14:28:32.804Z,36.02
2022-09-13T14:31:05.001Z,35.91
2022-09-13T14:33:37.816Z,36.23
2022-09-13T14:36:22.499Z,37.39
2022-09-13T14:39:00.495Z,37.48
2022-09-13T14:41:38.185Z,37.40
2022-09-13T14:44:29.022Z,38.57
2022-09-13T14:47:39.338Z,38.71
2022-09-13T14:50:19.970Z,39.18
2022-09-13T14:52:54.744Z,39.03
2022-09-13T14:55:34.087Z,38.88
2022-09-13T14:58:16.923Z,38.53
2022-09-13T15:01:03.190Z,38.20
2022-09-13T15:03:36.136Z,36.49
2022-09-13T15:06:08.337Z,37.17
2022-09-13T15:08:46.246Z,36.51
2022-09-13T15:11:37.500Z,38.87
2022-09-13T15:14:24.776Z,40.32
2022-09-13T15:17:16.586Z,41.20
2022-09-13T15:19:52.786Z,42.89
2022-09-13T15:22:34.458Z,42.75
2022-09-13T15:25:06.968Z,44.27
2022-09-13T15:27:47.708Z,45.12
2022-09-13T15:30:32.220Z,44.95
2022-09-13T15:33:27.120Z,45.54
2022-09-13T15:36:21.012Z,46.57
2022-09-13T15:39:20.635Z,47.20
2022-09-13T15:42:00.667Z,47.66
2022-09-13T15:44:32.635Z,47.59
2022-09-13T15:47:16.721Z,47.81
2022-09-13T15:49:52.449Z,47.84
2022-09-13T15:52:25.204Z,48.21
2022-09-13T15:54:57.127Z,48.04
2022-09-13T15:57:30.052Z,48.30
2022-09-13T16:00:06.397Z,47.86
2022-09-13T16:02:38.785Z,48.15
2022-09-13T16:05:12.170Z,49.88
2022-09-13T16:07:44.592Z,48.91
2022-09-13T16:10:20.815Z,49.41
2022-09-13T16:12:52.790Z,50.02
2022-09-13T16:15:24.729Z,50.02
2022-09-13T16:17:56.711Z,50.15
2022-09-13T16:20:30.929Z,50.56
2022-09-13T16:23:02.850Z,48.87
2022-09-13T16:25:35.981Z,49.32
2022-09-13T16:28:14.913Z,48.81
2022-09-13T16:30:49.110Z,49.70
2022-09-13T16:33:21.159Z,49.45
2022-09-13T16:35:53.072Z,49.74
2022-09-13T16:38:25.144Z,49.87
2022-09-13T16:40:57.046Z,48.61
2022-09-13T16:43:29.010Z,48.86
2022-09-13T16:46:07.827Z,48.13
2022-09-13T16:48:39.831Z,48.98
2022-09-13T16:51:13.319Z,48.29
2022-09-13T16:53:45.657Z,48.97
2022-09-13T16:56:21.014Z,48.58
2022-09-13T16:58:56.870Z,48.52
2022-09-13T17:01:29.953Z,48.87
2022-09-13T17:04:02.432Z,48.43
2022-09-13T17:06:34.516Z,48.42
2022-09-13T17:09:12.706Z,48.04
2022-09-13T17:11:45.981Z,49.00
2022-09-13T17:14:18.527Z,48.75
2022-09-13T17:16:54.356Z,48.28
2022-09-13T17:19:33.855Z,48.44
2022-09-13T17:22:10.867Z,48.37
2022-09-13T17:24:42.959Z,48.59
2022-09-13T17:27:14.882Z,49.21
2022-09-13T17:29:46.921Z,48.70
2022-09-13T17:32:18.936Z,50.11
2022-09-13T17:34:50.840Z,50.98
2022-09-13T17:37:22.981Z,48.68
2022-09-13T17:39:54.983Z,50.04
2022-09-13T17:42:27.328Z,48.78
2022-09-13T17:44:59.332Z,49.79
2022-09-13T17:47:31.288Z,49.57
2022-09-13T17:50:03.433Z,50.28
2022-09-13T17:52:35.401Z,48.97
2022-09-13T17:55:07.567Z,49.09
2022-09-13T17:57:40.430Z,48.89
2022-09-13T18:00:14.427Z,49.41
2022-09-13T18:02:46.743Z,50.65
2022-09-13T18:05:19.224Z,51.02
2022-09-13T18:07:51.306Z,51.76
2022-09-13T18:10:45.681Z,51.64
2022-09-13T18:13:15.326Z,51.74
2022-09-13T18:16:00.085Z,51.55
2022-09-13T18:18:32.134Z,51.28
2022-09-13T18:21:06.244Z,52.32
2022-09-13T18:23:38.250Z,53.59
2022-09-13T18:26:16.170Z,52.49
2022-09-13T18:28:57.205Z,52.74
2022-09-13T18:31:32.214Z,52.69
2022-09-13T18:34:08.504Z,53.83
2022-09-13T18:36:44.201Z,53.03
2022-09-13T18:39:19.794Z,53.34
2022-09-13T18:41:51.905Z,52.55
2022-09-13T18:44:23.804Z,53.45
2022-09-13T18:46:56.383Z,54.28
2022-09-13T18:49:28.399Z,54.30
2022-09-13T18:52:00.351Z,54.05
2022-09-13T18:54:32.335Z,55.09
2022-09-13T18:57:04.599Z,54.98
2022-09-13T18:59:36.614Z,55.73
2022-09-13T19:02:13.125Z,56.36
2022-09-13T19:04:45.183Z,56.42
2022-09-13T19:07:17.191Z,56.58
2022-09-13T19:09:50.540Z,56.66
2022-09-13T19:12:22.464Z,56.65
2022-09-13T19:14:54.384Z,57.51
2022-09-13T19:17:26.371Z,57.83
2022-09-13T19:19:59.019Z,57.96
2022-09-13T19:22:31.025Z,58.51
2022-09-13T19:25:03.043Z,58.59
2022-09-13T19:27:34.963Z,58.75
2022-09-13T19:30:07.978Z,59.61
2022-09-13T19:32:40.108Z,60.34
2022-09-13T19:35:12.019Z,60.73
2022-09-13T19:37:44.056Z,60.86
2022-09-13T19:40:18.416Z,60.66
2022-09-13T19:42:50.392Z,61.36
2022-09-13T19:45:22.796Z,62.01
2022-09-13T19:50:46.746Z,62.86
2022-09-13T19:53:19.172Z,63.16
2022-09-13T19:55:51.220Z,62.92
2022-09-13T19:58:23.385Z,63.10
2022-09-13T20:01:13.335Z,62.93
2022-09-13T20:03:56.652Z,62.32
2022-09-13T20:06:34.701Z,62.53
2022-09-13T20:09:08.877Z,63.20
2022-09-13T20:11:45.030Z,63.86
2022-09-13T20:14:20.335Z,63.66
2022-09-13T20:16:54.386Z,63.27
2022-09-13T20:19:46.156Z,63.13
2022-09-13T20:22:18.346Z,62.97
2022-09-13T20:24:50.333Z,62.67
2022-09-13T20:27:22.269Z,62.28
2022-09-13T20:29:56.025Z,63.10
2022-09-13T20:32:27.955Z,63.28
2022-09-13T20:35:01.168Z,63.48
2022-09-13T20:37:33.182Z,63.79
2022-09-13T20:40:06.046Z,63.92
2022-09-13T20:42:38.750Z,63.97
2022-09-13T20:45:11.188Z,64.33
2022-09-13T20:47:43.356Z,65.13
2022-09-13T20:50:15.521Z,64.80
2022-09-13T20:52:48.326Z,64.79
2022-09-13T20:55:20.271Z,64.46
2022-09-13T20:57:52.222Z,65.01
2022-09-13T21:00:25.373Z,65.72
2022-09-13T21:02:57.342Z,65.82
2022-09-13T21:05:29.364Z,65.29
2022-09-13T21:08:20.185Z,65.63
2022-09-13T21:11:04.593Z,67.27
2022-09-13T21:13:48.862Z,67.14
2022-09-13T21:16:30.596Z,67.43
2022-09-13T21:19:03.621Z,67.24
2022-09-13T21:21:41.945Z,67.20
2022-09-13T21:24:13.953Z,67.08
2022-09-13T21:26:46.099Z,68.14
2022-09-13T21:29:18.024Z,68.63
2022-09-13T21:31:49.995Z,68.79
2022-09-13T21:34:22.682Z,68.89
2022-09-13T21:36:54.854Z,69.23
2022-09-13T21:39:26.987Z,68.70
2022-09-13T21:41:58.981Z,69.43
2022-09-13T21:44:31.325Z,69.21
2022-09-13T21:47:03.316Z,68.52
2022-09-13T21:49:35.246Z,68.30
2022-09-13T21:52:08.185Z,68.40
2022-09-13T21:54:40.130Z,68.07
2022-09-13T21:57:12.152Z,68.31
2022-09-13T21:59:44.063Z,68.30
2022-09-13T22:02:15.993Z,68.43
2022-09-13T22:04:47.956Z,67.63
2022-09-13T22:07:19.928Z,68.08
2022-09-13T22:09:51.830Z,68.11
2022-09-13T22:12:24.037Z,68.15
2022-09-13T22:14:55.923Z,68.33
2022-09-13T22:17:27.863Z,68.56
2022-09-13T22:19:59.832Z,68.17
2022-09-13T22:22:32.128Z,68.93
2022-09-13T22:25:04.310Z,68.26
2022-09-13T22:27:37.367Z,68.98
2022-09-13T22:30:10.962Z,68.64
2022-09-13T22:32:42.920Z,68.25
2022-09-13T22:35:14.920Z,68.18
2022-09-13T22:37:46.829Z,68.47
2022-09-13T22:40:19.297Z,68.66
2022-09-13T22:42:51.323Z,69.01
2022-09-13T22:45:23.304Z,69.63
2022-09-13T22:47:55.323Z,69.28
2022-09-13T22:50:27.230Z,69.35
2022-09-13T22:52:59.156Z,69.30
2022-09-13T22:55:31.064Z,69.47
2022-09-13T22:58:02.961Z,70.10
2022-09-13T23:00:34.903Z,70.18
2022-09-13T23:03:07.130Z,70.46
2022-09-13T23:05:39.608Z,70.91
2022-09-13T23:08:11.622Z,71.09
2022-09-13T23:10:43.666Z,71.71
2022-09-13T23:13:15.676Z,71.49
2022-09-13T23:15:47.787Z,70.77
2022-09-13T23:18:19.740Z,71.49
2022-09-13T23:20:56.919Z,71.88
2022-09-13T23:23:30.087Z,71.61
2022-09-13T23:26:09.134Z,72.34
2022-09-13T23:28:41.604Z,72.28
2022-09-13T23:31:22.173Z,72.79
2022-09-13T23:33:58.062Z,72.38
2022-09-13T23:36:37.715Z,72.84
2022-09-13T23:39:17.843Z,73.13
2022-09-13T23:41:51.690Z,72.47
2022-09-13T23:44:23.904Z,73.02
2022-09-13T23:46:55.925Z,72.75
2022-09-13T23:49:27.874Z,72.57
2022-09-13T23:51:59.826Z,72.88
2022-09-13T23:54:31.785Z,73.68
2022-09-13T23:57:03.902Z,73.52
2022-09-13T23:59:35.859Z,73.46
